sensor_id;sensor_type;location;lat;lon;timestamp;P1;durP1;ratioP1;P2;durP2;ratioP2
72926;SDS011;61071;51.618;19.388;2023-04-01T00:00:55;10.15;;;8.18;;
72926;SDS011;61071;51.618;19.388;2023-04-01T00:03:22;11.90;;;8.43;;
72926;SDS011;61071;51.618;19.388;2023-04-01T00:05:49;10.32;;;8.65;;
72926;SDS011;61071;51.618;19.388;2023-04-01T00:08:15;12.30;;;9.00;;
72926;SDS011;61071;51.618;19.388;2023-04-01T00:10:42;8.95;;;7.93;;
72926;SDS011;61071;51.618;19.388;2023-04-01T00:13:08;9.02;;;7.95;;
72926;SDS011;61071;51.618;19.388;2023-04-01T00:15:34;11.75;;;8.13;;
72926;SDS011;61071;51.618;19.388;2023-04-01T00:18:00;11.82;;;8.32;;
72926;SDS011;61071;51.618;19.388;2023-04-01T00:20:26;10.25;;;7.72;;
72926;SDS011;61071;51.618;19.388;2023-04-01T00:22:53;11.93;;;8.82;;
72926;SDS011;61071;51.618;19.388;2023-04-01T00:25:20;10.23;;;8.20;;
72926;SDS011;61071;51.618;19.388;2023-04-01T00:27:45;10.10;;;7.75;;
72926;SDS011;61071;51.618;19.388;2023-04-01T00:30:11;10.98;;;8.10;;
72926;SDS011;61071;51.618;19.388;2023-04-01T00:32:37;8.70;;;7.30;;
72926;SDS011;61071;51.618;19.388;2023-04-01T00:35:03;9.57;;;8.02;;
72926;SDS011;61071;51.618;19.388;2023-04-01T00:37:30;9.90;;;7.90;;
72926;SDS011;61071;51.618;19.388;2023-04-01T00:39:56;10.02;;;8.20;;
72926;SDS011;61071;51.618;19.388;2023-04-01T00:42:22;9.25;;;7.55;;
72926;SDS011;61071;51.618;19.388;2023-04-01T00:44:50;9.77;;;7.55;;
72926;SDS011;61071;51.618;19.388;2023-04-01T00:47:18;8.77;;;7.60;;
72926;SDS011;61071;51.618;19.388;2023-04-01T00:49:45;10.50;;;8.15;;
72926;SDS011;61071;51.618;19.388;2023-04-01T00:52:15;10.80;;;7.70;;
72926;SDS011;61071;51.618;19.388;2023-04-01T00:54:47;10.48;;;7.82;;
72926;SDS011;61071;51.618;19.388;2023-04-01T00:57:29;9.02;;;7.57;;
72926;SDS011;61071;51.618;19.388;2023-04-01T01:00:03;11.35;;;9.05;;
72926;SDS011;61071;51.618;19.388;2023-04-01T01:02:34;11.18;;;9.05;;
72926;SDS011;61071;51.618;19.388;2023-04-01T01:05:00;10.13;;;8.98;;
72926;SDS011;61071;51.618;19.388;2023-04-01T01:13:05;13.15;;;10.80;;
72926;SDS011;61071;51.618;19.388;2023-04-01T01:16:40;15.20;;;11.93;;
72926;SDS011;61071;51.618;19.388;2023-04-01T01:31:12;13.50;;;11.93;;
72926;SDS011;61071;51.618;19.388;2023-04-01T01:36:54;15.80;;;12.38;;
72926;SDS011;61071;51.618;19.388;2023-04-01T01:39:26;12.35;;;11.05;;
72926;SDS011;61071;51.618;19.388;2023-04-01T01:41:57;13.30;;;11.35;;
72926;SDS011;61071;51.618;19.388;2023-04-01T01:44:29;15.10;;;11.55;;
72926;SDS011;61071;51.618;19.388;2023-04-01T01:46:57;13.48;;;11.65;;
72926;SDS011;61071;51.618;19.388;2023-04-01T01:49:24;14.57;;;11.43;;
72926;SDS011;61071;51.618;19.388;2023-04-01T01:51:52;12.52;;;10.48;;
72926;SDS011;61071;51.618;19.388;2023-04-01T01:54:18;14.82;;;10.82;;
72926;SDS011;61071;51.618;19.388;2023-04-01T01:56:44;13.07;;;10.68;;
72926;SDS011;61071;51.618;19.388;2023-04-01T01:59:16;13.95;;;11.02;;
72926;SDS011;61071;51.618;19.388;2023-04-01T02:01:46;13.60;;;10.95;;
72926;SDS011;61071;51.618;19.388;2023-04-01T02:04:17;16.48;;;11.95;;
72926;SDS011;61071;51.618;19.388;2023-04-01T02:06:47;16.15;;;11.48;;
72926;SDS011;61071;51.618;19.388;2023-04-01T02:09:21;12.15;;;10.50;;
72926;SDS011;61071;51.618;19.388;2023-04-01T02:11:48;13.27;;;10.60;;
72926;SDS011;61071;51.618;19.388;2023-04-01T02:14:23;16.25;;;10.40;;
72926;SDS011;61071;51.618;19.388;2023-04-01T02:16:58;13.00;;;9.88;;
72926;SDS011;61071;51.618;19.388;2023-04-01T02:19:31;14.27;;;10.30;;
72926;SDS011;61071;51.618;19.388;2023-04-01T02:22:23;14.07;;;10.32;;
72926;SDS011;61071;51.618;19.388;2023-04-01T02:24:53;14.15;;;11.25;;
72926;SDS011;61071;51.618;19.388;2023-04-01T02:27:26;16.15;;;12.02;;
72926;SDS011;61071;51.618;19.388;2023-04-01T02:29:51;16.23;;;12.20;;
72926;SDS011;61071;51.618;19.388;2023-04-01T02:32:18;12.52;;;9.38;;
72926;SDS011;61071;51.618;19.388;2023-04-01T02:34:45;13.95;;;9.02;;
72926;SDS011;61071;51.618;19.388;2023-04-01T02:37:13;10.65;;;8.88;;
72926;SDS011;61071;51.618;19.388;2023-04-01T02:39:40;10.18;;;8.65;;
72926;SDS011;61071;51.618;19.388;2023-04-01T02:42:07;11.98;;;9.07;;
72926;SDS011;61071;51.618;19.388;2023-04-01T02:44:33;10.82;;;9.05;;
72926;SDS011;61071;51.618;19.388;2023-04-01T02:46:59;11.40;;;8.55;;
72926;SDS011;61071;51.618;19.388;2023-04-01T02:49:25;13.18;;;8.77;;
72926;SDS011;61071;51.618;19.388;2023-04-01T02:51:51;10.27;;;8.77;;
72926;SDS011;61071;51.618;19.388;2023-04-01T02:54:17;9.38;;;8.23;;
72926;SDS011;61071;51.618;19.388;2023-04-01T02:56:43;11.77;;;8.50;;
72926;SDS011;61071;51.618;19.388;2023-04-01T02:59:10;10.40;;;8.48;;
72926;SDS011;61071;51.618;19.388;2023-04-01T03:01:37;11.45;;;7.65;;
72926;SDS011;61071;51.618;19.388;2023-04-01T03:04:03;9.55;;;7.88;;
72926;SDS011;61071;51.618;19.388;2023-04-01T03:06:29;13.70;;;8.20;;
72926;SDS011;61071;51.618;19.388;2023-04-01T03:08:55;12.75;;;7.47;;
72926;SDS011;61071;51.618;19.388;2023-04-01T03:11:21;10.82;;;7.78;;
72926;SDS011;61071;51.618;19.388;2023-04-01T03:13:47;10.55;;;7.57;;
72926;SDS011;61071;51.618;19.388;2023-04-01T03:16:13;11.05;;;6.90;;
72926;SDS011;61071;51.618;19.388;2023-04-01T03:18:39;11.48;;;7.82;;
72926;SDS011;61071;51.618;19.388;2023-04-01T03:21:21;11.02;;;7.50;;
72926;SDS011;61071;51.618;19.388;2023-04-01T03:23:49;9.45;;;6.20;;
72926;SDS011;61071;51.618;19.388;2023-04-01T03:26:15;8.85;;;6.63;;
72926;SDS011;61071;51.618;19.388;2023-04-01T03:28:41;9.05;;;6.60;;
72926;SDS011;61071;51.618;19.388;2023-04-01T03:31:07;11.55;;;7.28;;
72926;SDS011;61071;51.618;19.388;2023-04-01T03:33:33;9.23;;;6.97;;
72926;SDS011;61071;51.618;19.388;2023-04-01T03:35:59;8.82;;;6.47;;
72926;SDS011;61071;51.618;19.388;2023-04-01T03:38:25;10.18;;;6.28;;
72926;SDS011;61071;51.618;19.388;2023-04-01T03:40:50;9.65;;;6.88;;
72926;SDS011;61071;51.618;19.388;2023-04-01T03:43:16;10.40;;;6.93;;
72926;SDS011;61071;51.618;19.388;2023-04-01T03:45:45;8.75;;;6.10;;
72926;SDS011;61071;51.618;19.388;2023-04-01T03:48:15;13.60;;;7.30;;
72926;SDS011;61071;51.618;19.388;2023-04-01T03:50:42;9.20;;;7.53;;
72926;SDS011;61071;51.618;19.388;2023-04-01T03:53:08;9.02;;;6.85;;
72926;SDS011;61071;51.618;19.388;2023-04-01T03:55:37;9.60;;;6.80;;
72926;SDS011;61071;51.618;19.388;2023-04-01T03:58:04;9.55;;;7.13;;
72926;SDS011;61071;51.618;19.388;2023-04-01T04:00:31;10.88;;;7.30;;
72926;SDS011;61071;51.618;19.388;2023-04-01T04:02:57;12.57;;;8.63;;
72926;SDS011;61071;51.618;19.388;2023-04-01T04:05:24;13.30;;;8.13;;
72926;SDS011;61071;51.618;19.388;2023-04-01T04:07:50;10.25;;;7.60;;
72926;SDS011;61071;51.618;19.388;2023-04-01T04:10:17;11.65;;;7.45;;
72926;SDS011;61071;51.618;19.388;2023-04-01T04:12:42;10.48;;;7.57;;
72926;SDS011;61071;51.618;19.388;2023-04-01T04:15:09;9.25;;;6.63;;
72926;SDS011;61071;51.618;19.388;2023-04-01T04:17:36;15.02;;;10.18;;
72926;SDS011;61071;51.618;19.388;2023-04-01T04:20:02;12.20;;;9.82;;
72926;SDS011;61071;51.618;19.388;2023-04-01T04:22:28;10.80;;;6.60;;
72926;SDS011;61071;51.618;19.388;2023-04-01T04:24:53;11.63;;;7.45;;
72926;SDS011;61071;51.618;19.388;2023-04-01T04:27:19;10.30;;;7.53;;
72926;SDS011;61071;51.618;19.388;2023-04-01T04:29:45;13.75;;;7.95;;
72926;SDS011;61071;51.618;19.388;2023-04-01T04:32:10;10.30;;;7.00;;
72926;SDS011;61071;51.618;19.388;2023-04-01T04:34:36;9.55;;;7.03;;
72926;SDS011;61071;51.618;19.388;2023-04-01T04:37:02;14.48;;;7.00;;
72926;SDS011;61071;51.618;19.388;2023-04-01T04:39:27;10.23;;;7.03;;
72926;SDS011;61071;51.618;19.388;2023-04-01T04:41:54;10.88;;;6.82;;
72926;SDS011;61071;51.618;19.388;2023-04-01T04:44:20;9.95;;;6.68;;
72926;SDS011;61071;51.618;19.388;2023-04-01T04:46:45;10.95;;;7.78;;
72926;SDS011;61071;51.618;19.388;2023-04-01T04:49:11;9.85;;;6.97;;
72926;SDS011;61071;51.618;19.388;2023-04-01T04:51:37;9.63;;;6.82;;
72926;SDS011;61071;51.618;19.388;2023-04-01T04:54:03;12.30;;;7.07;;
72926;SDS011;61071;51.618;19.388;2023-04-01T04:56:29;7.97;;;6.40;;
72926;SDS011;61071;51.618;19.388;2023-04-01T04:58:55;9.48;;;6.82;;
72926;SDS011;61071;51.618;19.388;2023-04-01T05:01:22;8.32;;;6.13;;
72926;SDS011;61071;51.618;19.388;2023-04-01T05:03:48;10.52;;;6.00;;
72926;SDS011;61071;51.618;19.388;2023-04-01T05:06:15;9.23;;;5.80;;
72926;SDS011;61071;51.618;19.388;2023-04-01T05:08:42;10.88;;;6.40;;
72926;SDS011;61071;51.618;19.388;2023-04-01T05:11:11;11.98;;;6.55;;
72926;SDS011;61071;51.618;19.388;2023-04-01T05:13:41;10.75;;;6.50;;
72926;SDS011;61071;51.618;19.388;2023-04-01T05:16:11;8.68;;;6.28;;
72926;SDS011;61071;51.618;19.388;2023-04-01T05:18:40;9.63;;;6.55;;
72926;SDS011;61071;51.618;19.388;2023-04-01T05:21:07;8.85;;;6.55;;
72926;SDS011;61071;51.618;19.388;2023-04-01T05:23:35;10.98;;;6.05;;
72926;SDS011;61071;51.618;19.388;2023-04-01T05:26:04;11.15;;;6.75;;
72926;SDS011;61071;51.618;19.388;2023-04-01T05:28:32;7.10;;;6.25;;
72926;SDS011;61071;51.618;19.388;2023-04-01T05:31:01;9.73;;;6.75;;
72926;SDS011;61071;51.618;19.388;2023-04-01T05:33:29;10.30;;;6.18;;
72926;SDS011;61071;51.618;19.388;2023-04-01T05:35:56;8.25;;;5.95;;
72926;SDS011;61071;51.618;19.388;2023-04-01T05:38:30;8.90;;;6.28;;
72926;SDS011;61071;51.618;19.388;2023-04-01T05:40:58;10.40;;;5.97;;
72926;SDS011;61071;51.618;19.388;2023-04-01T05:43:25;9.93;;;6.38;;
72926;SDS011;61071;51.618;19.388;2023-04-01T05:45:51;9.23;;;5.75;;
72926;SDS011;61071;51.618;19.388;2023-04-01T05:48:17;8.02;;;5.72;;
72926;SDS011;61071;51.618;19.388;2023-04-01T05:50:42;6.80;;;5.63;;
72926;SDS011;61071;51.618;19.388;2023-04-01T05:53:08;9.02;;;5.90;;
72926;SDS011;61071;51.618;19.388;2023-04-01T05:55:34;9.60;;;5.95;;
72926;SDS011;61071;51.618;19.388;2023-04-01T05:58:01;9.32;;;6.05;;
72926;SDS011;61071;51.618;19.388;2023-04-01T06:00:27;7.78;;;5.97;;
72926;SDS011;61071;51.618;19.388;2023-04-01T06:02:52;8.40;;;6.13;;
72926;SDS011;61071;51.618;19.388;2023-04-01T06:05:22;8.40;;;5.47;;
72926;SDS011;61071;51.618;19.388;2023-04-01T06:07:57;6.45;;;5.43;;
72926;SDS011;61071;51.618;19.388;2023-04-01T06:10:37;8.73;;;5.18;;
72926;SDS011;61071;51.618;19.388;2023-04-01T06:30:42;7.55;;;5.20;;
72926;SDS011;61071;51.618;19.388;2023-04-01T06:51:18;9.63;;;5.82;;
72926;SDS011;61071;51.618;19.388;2023-04-01T06:54:30;7.45;;;5.47;;
72926;SDS011;61071;51.618;19.388;2023-04-01T07:00:30;7.65;;;5.63;;
72926;SDS011;61071;51.618;19.388;2023-04-01T07:03:02;10.98;;;5.38;;
72926;SDS011;61071;51.618;19.388;2023-04-01T07:05:43;8.65;;;5.75;;
72926;SDS011;61071;51.618;19.388;2023-04-01T07:08:10;7.78;;;5.50;;
72926;SDS011;61071;51.618;19.388;2023-04-01T07:10:53;8.32;;;5.70;;
72926;SDS011;61071;51.618;19.388;2023-04-01T07:13:47;8.48;;;5.05;;
72926;SDS011;61071;51.618;19.388;2023-04-01T07:16:27;9.95;;;5.95;;
72926;SDS011;61071;51.618;19.388;2023-04-01T07:24:43;7.85;;;4.90;;
72926;SDS011;61071;51.618;19.388;2023-04-01T07:27:11;5.63;;;4.78;;
72926;SDS011;61071;51.618;19.388;2023-04-01T07:29:38;7.43;;;5.40;;
72926;SDS011;61071;51.618;19.388;2023-04-01T07:40:30;144.43;;;51.70;;
72926;SDS011;61071;51.618;19.388;2023-04-01T07:46:11;92.05;;;44.35;;
72926;SDS011;61071;51.618;19.388;2023-04-01T07:51:55;9.10;;;6.65;;
72926;SDS011;61071;51.618;19.388;2023-04-01T07:54:52;8.68;;;6.00;;
72926;SDS011;61071;51.618;19.388;2023-04-01T07:57:53;6.10;;;4.55;;
72926;SDS011;61071;51.618;19.388;2023-04-01T08:00:45;7.63;;;4.22;;
72926;SDS011;61071;51.618;19.388;2023-04-01T08:03:30;6.63;;;4.18;;
72926;SDS011;61071;51.618;19.388;2023-04-01T08:14:33;9.95;;;6.45;;
72926;SDS011;61071;51.618;19.388;2023-04-01T08:17:23;7.53;;;6.45;;
72926;SDS011;61071;51.618;19.388;2023-04-01T08:20:08;10.30;;;6.93;;
72926;SDS011;61071;51.618;19.388;2023-04-01T08:31:14;10.48;;;7.28;;
72926;SDS011;61071;51.618;19.388;2023-04-01T08:33:55;7.53;;;6.80;;
72926;SDS011;61071;51.618;19.388;2023-04-01T08:36:33;8.80;;;6.88;;
72926;SDS011;61071;51.618;19.388;2023-04-01T08:41:44;7.28;;;6.10;;
72926;SDS011;61071;51.618;19.388;2023-04-01T08:49:55;6.95;;;5.30;;
72926;SDS011;61071;51.618;19.388;2023-04-01T08:52:35;7.15;;;6.25;;
72926;SDS011;61071;51.618;19.388;2023-04-01T09:02:13;5.32;;;4.82;;
72926;SDS011;61071;51.618;19.388;2023-04-01T09:05:21;4.65;;;4.20;;
72926;SDS011;61071;51.618;19.388;2023-04-01T09:11:17;4.85;;;4.30;;
72926;SDS011;61071;51.618;19.388;2023-04-01T09:14:23;4.22;;;3.83;;
72926;SDS011;61071;51.618;19.388;2023-04-01T09:32:41;3.30;;;3.00;;
72926;SDS011;61071;51.618;19.388;2023-04-01T09:35:42;2.03;;;1.92;;
72926;SDS011;61071;51.618;19.388;2023-04-01T09:38:20;2.63;;;2.42;;
72926;SDS011;61071;51.618;19.388;2023-04-01T09:41:01;2.78;;;2.42;;
72926;SDS011;61071;51.618;19.388;2023-04-01T09:43:53;2.65;;;2.22;;
72926;SDS011;61071;51.618;19.388;2023-04-01T09:46:37;2.75;;;2.33;;
72926;SDS011;61071;51.618;19.388;2023-04-01T09:49:36;3.78;;;2.50;;
72926;SDS011;61071;51.618;19.388;2023-04-01T10:20:53;3.25;;;2.10;;
72926;SDS011;61071;51.618;19.388;2023-04-01T11:34:34;2.28;;;2.05;;
72926;SDS011;61071;51.618;19.388;2023-04-01T11:37:29;3.35;;;3.05;;
72926;SDS011;61071;51.618;19.388;2023-04-01T12:00:18;3.20;;;2.40;;
72926;SDS011;61071;51.618;19.388;2023-04-01T12:15:27;11.95;;;8.98;;
72926;SDS011;61071;51.618;19.388;2023-04-01T12:38:19;5.35;;;4.10;;
72926;SDS011;61071;51.618;19.388;2023-04-01T12:46:56;4.13;;;3.45;;
72926;SDS011;61071;51.618;19.388;2023-04-01T12:50:02;3.20;;;2.90;;
72926;SDS011;61071;51.618;19.388;2023-04-01T12:55:59;11.57;;;7.15;;
72926;SDS011;61071;51.618;19.388;2023-04-01T12:58:56;3.78;;;3.13;;
72926;SDS011;61071;51.618;19.388;2023-04-01T13:16:19;3.20;;;2.70;;
72926;SDS011;61071;51.618;19.388;2023-04-01T13:35:58;6.35;;;4.60;;
72926;SDS011;61071;51.618;19.388;2023-04-01T13:51:22;6.05;;;5.18;;
72926;SDS011;61071;51.618;19.388;2023-04-01T13:54:15;6.07;;;5.40;;
72926;SDS011;61071;51.618;19.388;2023-04-01T14:05:44;118.65;;;66.68;;
72926;SDS011;61071;51.618;19.388;2023-04-01T14:11:31;85.07;;;55.72;;
72926;SDS011;61071;51.618;19.388;2023-04-01T14:34:52;26.27;;;15.82;;
72926;SDS011;61071;51.618;19.388;2023-04-01T14:37:58;56.17;;;34.10;;
72926;SDS011;61071;51.618;19.388;2023-04-01T14:49:36;94.43;;;48.75;;
72926;SDS011;61071;51.618;19.388;2023-04-01T14:52:16;19.67;;;13.55;;
72926;SDS011;61071;51.618;19.388;2023-04-01T14:54:53;103.15;;;50.15;;
72926;SDS011;61071;51.618;19.388;2023-04-01T14:57:24;24.38;;;16.33;;
72926;SDS011;61071;51.618;19.388;2023-04-01T15:26:06;25.60;;;16.58;;
72926;SDS011;61071;51.618;19.388;2023-04-01T15:32:13;200.35;;;115.15;;
72926;SDS011;61071;51.618;19.388;2023-04-01T15:37:55;90.20;;;53.35;;
72926;SDS011;61071;51.618;19.388;2023-04-01T15:49:03;40.00;;;25.50;;
72926;SDS011;61071;51.618;19.388;2023-04-01T15:57:37;92.97;;;51.92;;
72926;SDS011;61071;51.618;19.388;2023-04-01T16:12:37;25.92;;;19.63;;
72926;SDS011;61071;51.618;19.388;2023-04-01T16:15:24;21.45;;;16.23;;
72926;SDS011;61071;51.618;19.388;2023-04-01T16:18:17;22.88;;;15.93;;
72926;SDS011;61071;51.618;19.388;2023-04-01T16:20:55;23.10;;;17.00;;
72926;SDS011;61071;51.618;19.388;2023-04-01T16:23:36;19.42;;;15.70;;
72926;SDS011;61071;51.618;19.388;2023-04-01T16:30:00;27.58;;;20.58;;
72926;SDS011;61071;51.618;19.388;2023-04-01T16:33:03;24.40;;;16.55;;
72926;SDS011;61071;51.618;19.388;2023-04-01T16:38:31;18.33;;;13.00;;
72926;SDS011;61071;51.618;19.388;2023-04-01T16:43:49;21.90;;;14.30;;
72926;SDS011;61071;51.618;19.388;2023-04-01T16:46:44;21.33;;;15.02;;
72926;SDS011;61071;51.618;19.388;2023-04-01T16:57:45;30.90;;;20.13;;
72926;SDS011;61071;51.618;19.388;2023-04-01T17:00:27;25.17;;;18.42;;
72926;SDS011;61071;51.618;19.388;2023-04-01T17:03:07;26.05;;;17.20;;
72926;SDS011;61071;51.618;19.388;2023-04-01T17:06:03;25.30;;;17.90;;
72926;SDS011;61071;51.618;19.388;2023-04-01T17:17:08;28.15;;;20.33;;
72926;SDS011;61071;51.618;19.388;2023-04-01T17:55:22;32.50;;;22.75;;
72926;SDS011;61071;51.618;19.388;2023-04-01T17:58:29;34.05;;;22.67;;
72926;SDS011;61071;51.618;19.388;2023-04-01T18:28:18;35.35;;;22.38;;
72926;SDS011;61071;51.618;19.388;2023-04-01T18:31:20;41.13;;;21.88;;
72926;SDS011;61071;51.618;19.388;2023-04-01T18:42:29;53.25;;;31.98;;
72926;SDS011;61071;51.618;19.388;2023-04-01T18:45:26;52.03;;;30.15;;
72926;SDS011;61071;51.618;19.388;2023-04-01T18:48:02;56.35;;;30.92;;
72926;SDS011;61071;51.618;19.388;2023-04-01T18:56:51;89.15;;;54.80;;
72926;SDS011;61071;51.618;19.388;2023-04-01T18:59:53;50.20;;;28.58;;
72926;SDS011;61071;51.618;19.388;2023-04-01T19:02:44;71.68;;;40.50;;
72926;SDS011;61071;51.618;19.388;2023-04-01T19:05:43;65.80;;;30.20;;
72926;SDS011;61071;51.618;19.388;2023-04-01T19:19:55;87.20;;;50.33;;
72926;SDS011;61071;51.618;19.388;2023-04-01T19:25:38;130.52;;;71.40;;
72926;SDS011;61071;51.618;19.388;2023-04-01T19:34:27;180.32;;;100.18;;
72926;SDS011;61071;51.618;19.388;2023-04-01T19:39:58;214.15;;;125.88;;
72926;SDS011;61071;51.618;19.388;2023-04-01T19:45:59;83.72;;;41.47;;
72926;SDS011;61071;51.618;19.388;2023-04-01T19:49:00;55.33;;;24.87;;
72926;SDS011;61071;51.618;19.388;2023-04-01T19:54:36;105.05;;;55.67;;
72926;SDS011;61071;51.618;19.388;2023-04-01T20:06:26;93.93;;;54.83;;
72926;SDS011;61071;51.618;19.388;2023-04-01T20:18:25;72.88;;;38.47;;
72926;SDS011;61071;51.618;19.388;2023-04-01T20:21:05;58.50;;;31.92;;
72926;SDS011;61071;51.618;19.388;2023-04-01T20:24:13;61.22;;;32.90;;
72926;SDS011;61071;51.618;19.388;2023-04-01T20:26:53;74.55;;;45.75;;
72926;SDS011;61071;51.618;19.388;2023-04-01T20:36:16;99.97;;;40.60;;
72926;SDS011;61071;51.618;19.388;2023-04-01T20:48:10;51.65;;;28.15;;
72926;SDS011;61071;51.618;19.388;2023-04-01T21:20:39;60.10;;;33.83;;
72926;SDS011;61071;51.618;19.388;2023-04-01T21:23:53;48.78;;;26.00;;
72926;SDS011;61071;51.618;19.388;2023-04-01T21:27:07;44.83;;;23.95;;
72926;SDS011;61071;51.618;19.388;2023-04-01T21:56:25;25.98;;;13.73;;
72926;SDS011;61071;51.618;19.388;2023-04-01T21:59:21;19.30;;;12.30;;
72926;SDS011;61071;51.618;19.388;2023-04-01T22:05:28;16.77;;;13.75;;
72926;SDS011;61071;51.618;19.388;2023-04-01T22:26:02;18.65;;;12.45;;
72926;SDS011;61071;51.618;19.388;2023-04-01T22:32:05;20.00;;;13.43;;
72926;SDS011;61071;51.618;19.388;2023-04-01T22:34:19;20.13;;;13.15;;
72926;SDS011;61071;51.618;19.388;2023-04-01T22:42:58;19.27;;;13.80;;
72926;SDS011;61071;51.618;19.388;2023-04-01T22:51:02;23.10;;;16.33;;
72926;SDS011;61071;51.618;19.388;2023-04-01T22:56:41;26.95;;;16.85;;
72926;SDS011;61071;51.618;19.388;2023-04-01T22:59:37;31.30;;;19.42;;
72926;SDS011;61071;51.618;19.388;2023-04-01T23:02:15;26.05;;;15.57;;
72926;SDS011;61071;51.618;19.388;2023-04-01T23:04:53;24.13;;;15.18;;
72926;SDS011;61071;51.618;19.388;2023-04-01T23:10:30;21.58;;;11.65;;
72926;SDS011;61071;51.618;19.388;2023-04-01T23:13:18;27.02;;;13.30;;
72926;SDS011;61071;51.618;19.388;2023-04-01T23:15:56;26.13;;;16.20;;
72926;SDS011;61071;51.618;19.388;2023-04-01T23:29:44;18.83;;;11.52;;
72926;SDS011;61071;51.618;19.388;2023-04-01T23:32:14;22.05;;;12.02;;
72926;SDS011;61071;51.618;19.388;2023-04-01T23:34:47;18.65;;;12.20;;
72926;SDS011;61071;51.618;19.388;2023-04-01T23:37:16;20.15;;;13.50;;
72926;SDS011;61071;51.618;19.388;2023-04-01T23:40:02;28.60;;;14.27;;
72926;SDS011;61071;51.618;19.388;2023-04-01T23:42:31;17.48;;;12.60;;
72926;SDS011;61071;51.618;19.388;2023-04-01T23:45:05;13.57;;;10.30;;
72926;SDS011;61071;51.618;19.388;2023-04-01T23:47:42;18.08;;;11.25;;
72926;SDS011;61071;51.618;19.388;2023-04-01T23:50:11;13.05;;;9.52;;
72926;SDS011;61071;51.618;19.388;2023-04-01T23:52:59;14.15;;;9.93;;
72926;SDS011;61071;51.618;19.388;2023-04-01T23:55:36;13.00;;;9.25;;
72926;SDS011;61071;51.618;19.388;2023-04-01T23:58:23;10.55;;;8.00;;
